createdAt,value
2023-02-13T00:00:32.288Z,103685.47
2023-02-13T00:03:02.177Z,103678.53
2023-02-13T00:05:32.429Z,103679.41
2023-02-13T00:08:02.361Z,103671.81
2023-02-13T00:10:31.822Z,103658.03
2023-02-13T00:13:01.526Z,103640.47
2023-02-13T00:15:32.678Z,103475.97
2023-02-13T00:18:03.940Z,103669.56
2023-02-13T00:20:33.667Z,103675.69
2023-02-13T00:23:03.573Z,103497.38
2023-02-13T00:25:32.988Z,103662.75
2023-02-13T00:28:02.992Z,103666.19
2023-02-13T00:30:35.958Z,103624.47
2023-02-13T00:33:05.702Z,103662.88
2023-02-13T00:35:36.505Z,103664.56
2023-02-13T00:38:06.456Z,103662.91
2023-02-13T00:40:36.160Z,103646.44
2023-02-13T00:43:06.193Z,103670.84
2023-02-13T00:45:40.122Z,103662.13
2023-02-13T00:48:10.122Z,103643.69
2023-02-13T00:50:39.736Z,103668.06
2023-02-13T00:53:09.834Z,103591.66
2023-02-13T00:55:39.344Z,103656.13
2023-02-13T00:58:12.439Z,103656.03
2023-02-13T01:00:43.517Z,103648.28
2023-02-13T01:03:13.865Z,103653.50
2023-02-13T01:05:43.315Z,103652.78
2023-02-13T01:08:13.731Z,103575.38
2023-02-13T01:10:43.895Z,103645.84
2023-02-13T01:13:16.388Z,103649.31
2023-02-13T01:15:48.536Z,103627.47
2023-02-13T01:18:20.647Z,103644.00
2023-02-13T01:20:58.527Z,103646.69
2023-02-13T01:23:30.572Z,103641.41
2023-02-13T01:26:01.208Z,103644.16
2023-02-13T01:28:31.134Z,103644.03
2023-02-13T01:31:03.121Z,103657.75
2023-02-13T01:33:32.755Z,103635.31
2023-02-13T01:36:07.945Z,103632.72
2023-02-13T01:38:37.683Z,103632.88
2023-02-13T01:41:09.093Z,103631.94
2023-02-13T01:43:46.453Z,103638.88
2023-02-13T01:46:24.602Z,103632.84
2023-02-13T01:48:57.506Z,103627.53
2023-02-13T01:51:31.919Z,103624.97
2023-02-13T01:54:05.694Z,103632.75
2023-02-13T01:56:39.338Z,103630.25
2023-02-13T01:59:14.611Z,103634.59
2023-02-13T02:01:45.473Z,103629.09
2023-02-13T02:04:18.379Z,103634.31
2023-02-13T02:06:55.750Z,103635.94
2023-02-13T02:09:36.522Z,103660.09
2023-02-13T02:12:11.005Z,103638.56
2023-02-13T02:14:42.770Z,103655.75
2023-02-13T02:17:15.587Z,103635.09
2023-02-13T02:19:51.384Z,103631.72
2023-02-13T02:23:03.317Z,103628.19
2023-02-13T02:26:12.534Z,103466.31
2023-02-13T02:29:35.409Z,103634.16
2023-02-13T02:32:24.343Z,103634.09
2023-02-13T02:35:03.094Z,103627.22
2023-02-13T02:37:48.676Z,103620.34
2023-02-13T02:40:28.039Z,103624.63
2023-02-13T02:43:15.612Z,103584.81
2023-02-13T02:45:55.899Z,103619.56
2023-02-13T02:48:50.917Z,103568.16
2023-02-13T02:51:28.602Z,103579.53
2023-02-13T02:54:28.385Z,103611.75
2023-02-13T02:57:05.547Z,103569.97
2023-02-13T03:00:07.699Z,103617.63
2023-02-13T03:02:55.064Z,103615.00
2023-02-13T03:05:48.672Z,103610.81
2023-02-13T03:08:40.387Z,103613.41
2023-02-13T03:11:28.373Z,103603.00
2023-02-13T03:14:04.892Z,103563.81
2023-02-13T03:16:54.363Z,103611.66
2023-02-13T03:19:52.947Z,103605.63
2023-02-13T03:22:35.339Z,103611.78
2023-02-13T03:25:18.797Z,103605.44
2023-02-13T03:28:12.297Z,103645.19
2023-02-13T03:30:52.860Z,103589.84
2023-02-13T03:33:38.139Z,103609.16
2023-02-13T03:36:34.236Z,103614.41
2023-02-13T03:39:10.834Z,103608.44
2023-02-13T03:41:43.027Z,103608.28
2023-02-13T03:44:19.286Z,103591.78
2023-02-13T03:46:52.290Z,103596.84
2023-02-13T03:49:43.328Z,103601.19
2023-02-13T03:52:20.128Z,103595.81
2023-02-13T03:55:13.147Z,103559.09
2023-02-13T03:58:02.610Z,103597.47
2023-02-13T04:00:37.433Z,103601.06
2023-02-13T04:03:15.224Z,103599.19
2023-02-13T04:05:51.391Z,103569.88
2023-02-13T04:08:21.332Z,103591.78
2023-02-13T04:10:58.743Z,103592.69
2023-02-13T04:13:34.191Z,103232.81
2023-02-13T04:16:11.689Z,103585.69
2023-02-13T04:18:41.911Z,103589.94
2023-02-13T04:21:13.987Z,103584.00
2023-02-13T04:23:44.470Z,103507.50
2023-02-13T04:26:19.673Z,103588.13
2023-02-13T04:28:49.516Z,103580.34
2023-02-13T04:31:19.675Z,103588.25
2023-02-13T04:33:49.707Z,103570.56
2023-02-13T04:36:22.121Z,103594.16
2023-02-13T04:38:52.128Z,103594.34
2023-02-13T04:41:22.972Z,103591.84
2023-02-13T04:43:52.996Z,103569.41
2023-02-13T04:46:22.704Z,103588.44
2023-02-13T04:48:52.442Z,103585.59
2023-02-13T04:51:24.878Z,103580.66
2023-02-13T04:53:55.162Z,103577.00
2023-02-13T04:56:25.958Z,103583.84
2023-02-13T04:58:57.132Z,103558.50
2023-02-13T05:01:27.253Z,103588.09
2023-02-13T05:03:56.818Z,103576.13
2023-02-13T05:06:31.007Z,103578.53
2023-02-13T05:09:02.428Z,103535.06
2023-02-13T05:11:33.911Z,103570.75
2023-02-13T05:14:04.126Z,103592.34
2023-02-13T05:16:34.075Z,103548.09
2023-02-13T05:19:04.384Z,103533.34
2023-02-13T05:21:51.199Z,103556.06
2023-02-13T05:24:21.307Z,103570.03
2023-02-13T05:26:52.449Z,103565.88
2023-02-13T05:29:23.035Z,103574.38
2023-02-13T05:31:54.788Z,103571.50
2023-02-13T05:34:24.988Z,103570.66
2023-02-13T05:36:55.293Z,103568.28
2023-02-13T05:39:24.839Z,103569.00
2023-02-13T05:41:55.748Z,103573.25
2023-02-13T05:44:27.772Z,103570.75
2023-02-13T05:46:57.316Z,103567.41
2023-02-13T05:49:26.593Z,103579.59
2023-02-13T05:51:58.422Z,103576.13
2023-02-13T05:54:30.272Z,103394.53
2023-02-13T05:57:00.630Z,103372.84
2023-02-13T05:59:29.738Z,103586.59
2023-02-13T06:02:01.112Z,103577.97
2023-02-13T06:04:30.597Z,103581.50
2023-02-13T06:07:01.828Z,103582.41
2023-02-13T06:09:31.400Z,103564.03
2023-02-13T06:12:04.537Z,103582.41
2023-02-13T06:14:34.051Z,103567.78
2023-02-13T06:17:03.903Z,103549.44
2023-02-13T06:19:36.440Z,103562.63
2023-02-13T06:22:06.420Z,103581.47
2023-02-13T06:24:35.913Z,103580.56
2023-02-13T06:27:07.383Z,103567.69
2023-02-13T06:29:39.274Z,103569.41
2023-02-13T06:32:09.387Z,103557.94
2023-02-13T06:34:38.732Z,103564.03
2023-02-13T06:37:08.718Z,103562.28
2023-02-13T06:39:40.133Z,103558.81
2023-02-13T06:42:10.700Z,103561.50
2023-02-13T06:44:41.011Z,103361.88
2023-02-13T06:47:10.933Z,103562.47
2023-02-13T06:49:41.525Z,103540.69
2023-02-13T06:52:11.289Z,103563.16
2023-02-13T06:54:47.655Z,103570.16
2023-02-13T06:57:19.460Z,103572.75
2023-02-13T06:59:49.282Z,103380.09
2023-02-13T07:02:19.049Z,103577.22
2023-02-13T07:04:48.929Z,103509.38
2023-02-13T07:07:19.153Z,103559.09
2023-02-13T07:09:48.928Z,103560.66
2023-02-13T07:12:19.678Z,103560.91
2023-02-13T07:14:49.464Z,103590.34
2023-02-13T07:17:19.679Z,103589.50
2023-02-13T07:19:52.237Z,103432.13
2023-02-13T07:22:22.404Z,103591.13
2023-02-13T07:24:52.684Z,103586.81
2023-02-13T07:27:23.669Z,103591.25
2023-02-13T07:29:53.186Z,103585.16
2023-02-13T07:32:23.690Z,103586.72
2023-02-13T07:35:01.686Z,103591.97
2023-02-13T07:37:34.601Z,103574.44
2023-02-13T07:40:06.499Z,103603.16
2023-02-13T07:42:37.411Z,103606.50
2023-02-13T07:45:08.329Z,103615.16
2023-02-13T07:47:37.913Z,103606.75
2023-02-13T07:50:08.800Z,103606.84
2023-02-13T07:52:38.547Z,103615.50
2023-02-13T07:55:09.101Z,103612.00
2023-02-13T07:57:40.107Z,103610.19
2023-02-13T08:00:12.509Z,103611.78
2023-02-13T08:02:42.620Z,103573.63
2023-02-13T08:05:11.947Z,103618.03
2023-02-13T08:07:42.522Z,103622.31
2023-02-13T08:10:32.263Z,103629.22
2023-02-13T08:13:03.996Z,103611.34
2023-02-13T08:15:33.543Z,103610.25
2023-02-13T08:18:03.563Z,103645.63
2023-02-13T08:20:32.818Z,103613.34
2023-02-13T08:23:06.672Z,103623.63
2023-02-13T08:25:36.472Z,103533.31
2023-02-13T08:28:07.421Z,103617.59
2023-02-13T08:30:37.095Z,103613.41
2023-02-13T08:33:06.927Z,103623.88
2023-02-13T08:35:37.105Z,103624.66
2023-02-13T08:38:10.852Z,103430.16
2023-02-13T08:40:40.576Z,103627.47
2023-02-13T08:43:11.863Z,103626.00
2023-02-13T08:45:42.033Z,103601.59
2023-02-13T08:48:12.159Z,103627.22
2023-02-13T08:50:41.736Z,103597.97
2023-02-13T08:53:11.531Z,103618.13
2023-02-13T08:55:41.062Z,103615.34
2023-02-13T08:58:12.528Z,103609.09
2023-02-13T09:00:41.872Z,103603.41
2023-02-13T09:03:14.563Z,103610.16
2023-02-13T09:05:44.916Z,103612.13
2023-02-13T09:08:16.217Z,103609.53
2023-02-13T09:10:47.702Z,103610.31
2023-02-13T09:13:19.119Z,103610.50
2023-02-13T09:15:48.692Z,103608.78
2023-02-13T09:18:18.946Z,103623.31
2023-02-13T09:20:48.401Z,103618.13
2023-02-13T09:23:18.581Z,103614.00
2023-02-13T09:25:48.502Z,103598.44
2023-02-13T09:28:21.665Z,103616.53
2023-02-13T09:30:51.696Z,103623.31
2023-02-13T09:33:22.111Z,103613.81
2023-02-13T09:35:52.056Z,103622.53
2023-02-13T09:38:22.368Z,103586.06
2023-02-13T09:40:54.883Z,103592.97
2023-02-13T09:43:32.147Z,103619.28
2023-02-13T09:46:06.952Z,103617.56
2023-02-13T09:48:40.584Z,103628.97
2023-02-13T09:51:16.855Z,103571.75
2023-02-13T09:53:55.171Z,103617.69
2023-02-13T09:56:38.911Z,103615.13
2023-02-13T09:59:26.961Z,103544.88
2023-02-13T10:02:01.618Z,103608.25
2023-02-13T10:04:39.801Z,103606.56
2023-02-13T10:07:21.778Z,103608.38
2023-02-13T10:10:02.472Z,103605.78
2023-02-13T10:12:52.134Z,103609.25
2023-02-13T10:15:33.677Z,103603.28
2023-02-13T10:18:07.529Z,103600.72
2023-02-13T10:20:41.116Z,103600.69
2023-02-13T10:23:22.709Z,103605.94
2023-02-13T10:25:58.092Z,103607.66
2023-02-13T10:28:35.477Z,103605.97
2023-02-13T10:31:10.303Z,103599.03
2023-02-13T10:33:57.452Z,103595.53
2023-02-13T10:36:31.125Z,103605.09
2023-02-13T10:39:04.106Z,103597.31
2023-02-13T10:41:45.420Z,103584.28
2023-02-13T10:44:30.376Z,103599.88
2023-02-13T10:47:10.199Z,103603.34
2023-02-13T10:49:55.186Z,103598.03
2023-02-13T10:52:34.843Z,103535.66
2023-02-13T10:55:16.508Z,103593.72
2023-02-13T10:58:01.912Z,103580.72
2023-02-13T11:00:36.084Z,103589.38
2023-02-13T11:03:12.790Z,103598.09
2023-02-13T11:05:44.368Z,103589.25
2023-02-13T11:08:22.045Z,103596.22
2023-02-13T11:10:51.942Z,103592.84
2023-02-13T11:13:24.457Z,103552.94
2023-02-13T11:16:03.180Z,103580.53
2023-02-13T11:18:35.920Z,103512.06
2023-02-13T11:21:11.349Z,103567.38
2023-02-13T11:23:46.552Z,103564.66
2023-02-13T11:26:23.481Z,103560.91
2023-02-13T11:28:56.414Z,103550.69
2023-02-13T11:31:30.353Z,103549.78
2023-02-13T11:34:25.710Z,103585.25
2023-02-13T11:37:09.468Z,103482.88
2023-02-13T11:39:39.081Z,103534.75
2023-02-13T11:42:15.827Z,103533.03
2023-02-13T11:44:52.103Z,103532.91
2023-02-13T11:47:33.872Z,103529.34
2023-02-13T11:50:06.805Z,103524.34
2023-02-13T11:52:37.902Z,103479.22
2023-02-13T11:55:27.690Z,103530.09
2023-02-13T11:58:00.289Z,103500.19
2023-02-13T12:00:37.845Z,103524.75
2023-02-13T12:03:30.110Z,103398.72
2023-02-13T12:06:08.542Z,103495.31
2023-02-13T12:08:39.487Z,103217.88
2023-02-13T12:11:22.110Z,103520.25
2023-02-13T12:13:53.073Z,103517.50
2023-02-13T12:16:34.470Z,103523.56
2023-02-13T12:19:09.279Z,103388.50
2023-02-13T12:21:53.572Z,103521.09
2023-02-13T12:24:42.221Z,103510.41
2023-02-13T12:27:24.641Z,103508.66
2023-02-13T12:30:18.172Z,103504.94
2023-02-13T12:33:00.188Z,103501.53
2023-02-13T12:35:42.240Z,103498.88
2023-02-13T12:38:32.381Z,103456.47
2023-02-13T12:41:17.132Z,103501.50
2023-02-13T12:44:19.255Z,103495.56
2023-02-13T12:46:59.560Z,103472.91
2023-02-13T12:49:44.901Z,103487.63
2023-02-13T12:52:37.761Z,103485.63
2023-02-13T12:55:37.491Z,103495.09
2023-02-13T12:58:38.611Z,103486.59
2023-02-13T13:01:21.341Z,103488.63
2023-02-13T13:04:04.764Z,103489.88
2023-02-13T13:06:48.364Z,103484.94
2023-02-13T13:09:28.139Z,103476.72
2023-02-13T13:12:28.184Z,103460.13
2023-02-13T13:15:05.874Z,103472.19
2023-02-13T13:17:47.864Z,103469.09
2023-02-13T13:20:52.935Z,103468.75
2023-02-13T13:23:26.094Z,103461.13
2023-02-13T13:26:07.578Z,103462.75
2023-02-13T13:28:41.939Z,103456.00
2023-02-13T13:31:15.331Z,103462.03
2023-02-13T13:33:48.626Z,103457.63
2023-02-13T13:36:23.309Z,103454.31
2023-02-13T13:39:04.620Z,103448.16
2023-02-13T13:41:42.741Z,103443.75
2023-02-13T13:44:29.006Z,103446.34
2023-02-13T13:47:07.036Z,103443.69
2023-02-13T13:49:45.525Z,103446.03
2023-02-13T13:52:24.080Z,103440.97
2023-02-13T13:54:54.971Z,103410.69
2023-02-13T13:57:25.769Z,103423.59
2023-02-13T14:00:25.211Z,103416.63
2023-02-13T14:03:29.749Z,103420.94
2023-02-13T14:06:05.724Z,103425.31
2023-02-13T14:09:40.462Z,103408.69
2023-02-13T14:12:46.282Z,103411.56
2023-02-13T14:15:49.197Z,103415.88
2023-02-13T14:18:25.477Z,103412.31
2023-02-13T14:20:58.857Z,103297.69
2023-02-13T14:23:50.504Z,103409.75
2023-02-13T14:26:37.064Z,103411.81
2023-02-13T14:29:33.025Z,103407.41
2023-02-13T14:32:22.761Z,103402.97
2023-02-13T14:35:00.560Z,103411.66
2023-02-13T14:37:37.556Z,103410.09
2023-02-13T14:40:45.825Z,103407.56
2023-02-13T14:43:34.628Z,103383.41
2023-02-13T14:46:20.216Z,103413.78
2023-02-13T14:48:54.090Z,103413.03
2023-02-13T14:51:32.020Z,103410.34
2023-02-13T14:54:07.278Z,103239.56
2023-02-13T14:56:40.509Z,103413.81
2023-02-13T14:59:16.970Z,103408.72
2023-02-13T15:01:53.013Z,103392.28
2023-02-13T15:04:31.229Z,103409.53
2023-02-13T15:07:05.465Z,103400.84
2023-02-13T15:09:39.837Z,103403.13
2023-02-13T15:12:32.319Z,103425.25
2023-02-13T15:15:03.235Z,103393.34
2023-02-13T15:17:40.406Z,103381.19
2023-02-13T15:20:24.374Z,103394.22
2023-02-13T15:22:55.877Z,103393.38
2023-02-13T15:25:31.222Z,103352.78
2023-02-13T15:28:01.596Z,103384.81
2023-02-13T15:30:33.248Z,103375.13
2023-02-13T15:33:05.135Z,103350.06
2023-02-13T15:35:37.239Z,103377.75
2023-02-13T15:38:22.083Z,103369.25
2023-02-13T15:40:53.255Z,103372.19
2023-02-13T15:43:27.808Z,103381.72
2023-02-13T15:46:03.022Z,103384.50
2023-02-13T15:48:35.286Z,103384.47
2023-02-13T15:51:05.483Z,103378.56
2023-02-13T15:53:36.742Z,103385.38
2023-02-13T15:56:07.072Z,103380.34
2023-02-13T15:58:36.932Z,103219.78
2023-02-13T16:01:09.447Z,103390.03
2023-02-13T16:03:41.591Z,103393.59
2023-02-13T16:06:15.444Z,103365.94
2023-02-13T16:08:54.706Z,103387.56
2023-02-13T16:11:33.760Z,103391.91
2023-02-13T16:14:10.773Z,103384.97
2023-02-13T16:16:50.163Z,103347.81
2023-02-13T16:19:26.840Z,103339.19
2023-02-13T16:21:59.528Z,103228.44
2023-02-13T16:24:31.549Z,103356.47
2023-02-13T16:27:03.608Z,103378.25
2023-02-13T16:29:33.828Z,103322.84
2023-02-13T16:32:24.189Z,103415.41
2023-02-13T16:34:56.290Z,103357.44
2023-02-13T16:37:30.503Z,103351.50
2023-02-13T16:40:33.566Z,103363.59
2023-02-13T16:43:37.124Z,103379.22
2023-02-13T16:46:25.865Z,103369.72
2023-02-13T16:49:20.778Z,103371.50
2023-02-13T16:51:53.663Z,103357.63
2023-02-13T16:54:33.379Z,103370.50
2023-02-13T16:57:07.539Z,103377.63
2023-02-13T16:59:52.634Z,103408.09
2023-02-13T17:02:25.605Z,103382.94
2023-02-13T17:04:59.416Z,103383.72
2023-02-13T17:07:31.008Z,103386.25
2023-02-13T17:10:03.037Z,103380.34
2023-02-13T17:12:38.993Z,103394.19
2023-02-13T17:15:13.450Z,103389.97
2023-02-13T17:17:43.782Z,103396.09
2023-02-13T17:20:23.574Z,103386.50
2023-02-13T17:22:55.234Z,103374.50
2023-02-13T17:25:25.898Z,103391.78
2023-02-13T17:28:01.132Z,103393.56
2023-02-13T17:30:35.028Z,103397.03
2023-02-13T17:33:07.759Z,103398.81
2023-02-13T17:35:37.430Z,103400.56
2023-02-13T17:38:09.836Z,103392.75
2023-02-13T17:40:39.065Z,103424.81
2023-02-13T17:43:12.693Z,103391.03
2023-02-13T17:45:51.556Z,103380.66
2023-02-13T17:48:24.626Z,103367.63
2023-02-13T17:50:54.242Z,103398.84
2023-02-13T17:53:25.948Z,103391.03
2023-02-13T17:55:55.521Z,103382.34
2023-02-13T17:58:26.245Z,103366.75
2023-02-13T18:00:55.777Z,103383.22
2023-02-13T18:03:25.601Z,103207.44
2023-02-13T18:05:58.343Z,103361.56
2023-02-13T18:08:28.048Z,103390.09
2023-02-13T18:10:58.178Z,103383.19
2023-02-13T18:13:29.046Z,103383.22
2023-02-13T18:15:58.691Z,103358.03
2023-02-13T18:18:27.985Z,103389.25
2023-02-13T18:20:59.742Z,103390.97
2023-02-13T18:23:29.351Z,103384.94
2023-02-13T18:26:07.162Z,103369.31
2023-02-13T18:28:40.815Z,103384.03
2023-02-13T18:31:11.920Z,103385.75
2023-02-13T18:33:41.687Z,103366.66
2023-02-13T18:36:12.315Z,103381.38
2023-02-13T18:38:41.923Z,103381.34
2023-02-13T18:41:11.416Z,103381.38
2023-02-13T18:43:42.370Z,103383.16
2023-02-13T18:46:12.267Z,103376.25
2023-02-13T18:48:41.504Z,103382.25
2023-02-13T18:51:10.772Z,103339.81
2023-02-13T18:53:40.200Z,103373.53
2023-02-13T18:56:10.613Z,103377.84
2023-02-13T18:58:41.956Z,103378.69
2023-02-13T19:01:16.597Z,103380.38
2023-02-13T19:03:46.595Z,103379.47
2023-02-13T19:06:18.932Z,103385.53
2023-02-13T19:08:48.972Z,103372.44
2023-02-13T19:11:22.606Z,103383.75
2023-02-13T19:13:58.399Z,103411.34
2023-02-13T19:16:29.663Z,103356.81
2023-02-13T19:19:01.800Z,103385.38
2023-02-13T19:21:33.126Z,103385.41
2023-02-13T19:24:04.071Z,103173.16
2023-02-13T19:26:33.821Z,103371.53
2023-02-13T19:29:05.222Z,103399.13
2023-02-13T19:31:35.536Z,103373.91
2023-02-13T19:34:07.139Z,103389.50
2023-02-13T19:36:36.408Z,103349.63
2023-02-13T19:39:09.301Z,103385.19
2023-02-13T19:41:40.778Z,103387.75
2023-02-13T19:44:12.309Z,103351.28
2023-02-13T19:46:41.803Z,103386.84
2023-02-13T19:49:11.561Z,103385.88
2023-02-13T19:51:42.583Z,103390.19
2023-02-13T19:54:13.076Z,103413.47
2023-02-13T19:56:44.224Z,103389.28
2023-02-13T19:59:15.241Z,103391.03
2023-02-13T20:01:48.254Z,103387.66
2023-02-13T20:04:17.971Z,103394.56
2023-02-13T20:06:46.884Z,103393.81
2023-02-13T20:09:16.687Z,103388.56
2023-02-13T20:11:46.559Z,103335.56
2023-02-13T20:14:18.571Z,103382.22
2023-02-13T20:16:47.848Z,103388.16
2023-02-13T20:19:17.468Z,103350.72
2023-02-13T20:21:46.621Z,103366.28
2023-02-13T20:24:16.063Z,103399.16
2023-02-13T20:26:45.299Z,103394.78
2023-02-13T20:29:15.840Z,103400.91
2023-02-13T20:31:47.071Z,103359.28
2023-02-13T20:34:16.288Z,103398.41
2023-02-13T20:36:45.826Z,103402.78
2023-02-13T20:39:15.273Z,103404.59
2023-02-13T20:41:48.787Z,103231.25
2023-02-13T20:44:21.219Z,103405.72
2023-02-13T20:46:51.834Z,103236.63
2023-02-13T20:49:22.089Z,103413.47
2023-02-13T20:51:51.561Z,103382.97
2023-02-13T20:54:21.309Z,103416.72
2023-02-13T20:56:51.069Z,103405.50
2023-02-13T20:59:20.566Z,103371.63
2023-02-13T21:01:51.443Z,103379.25
2023-02-13T21:04:21.177Z,103410.50
2023-02-13T21:06:50.184Z,103410.50
2023-02-13T21:09:20.592Z,103376.56
2023-02-13T21:11:49.892Z,103405.16
2023-02-13T21:14:19.400Z,103400.03
2023-02-13T21:16:48.561Z,103404.31
2023-02-13T21:19:20.871Z,103411.22
2023-02-13T21:21:50.254Z,103402.25
2023-02-13T21:24:23.876Z,103371.78
2023-02-13T21:26:54.098Z,103411.84
2023-02-13T21:29:23.077Z,103199.03
2023-02-13T21:31:52.399Z,103314.19
2023-02-13T21:34:25.450Z,103415.06
2023-02-13T21:36:54.652Z,103421.88
2023-02-13T21:39:24.137Z,103409.69
2023-02-13T21:41:53.473Z,103420.16
2023-02-13T21:44:24.344Z,103419.28
2023-02-13T21:46:55.137Z,103401.88
2023-02-13T21:49:27.342Z,103417.47
2023-02-13T21:51:57.670Z,103410.53
2023-02-13T21:54:29.986Z,103407.06
2023-02-13T21:57:00.618Z,103387.88
2023-02-13T21:59:32.843Z,103405.28
2023-02-13T22:02:05.839Z,103391.41
2023-02-13T22:04:38.625Z,103407.13
2023-02-13T22:07:08.732Z,103408.84
2023-02-13T22:09:38.212Z,103402.81
2023-02-13T22:12:09.015Z,103400.97
2023-02-13T22:14:45.828Z,103261.88
2023-02-13T22:17:17.164Z,103408.53
2023-02-13T22:19:48.041Z,103403.91
2023-02-13T22:22:21.434Z,103399.50
2023-02-13T22:24:52.297Z,103391.88
2023-02-13T22:27:23.182Z,103389.38
2023-02-13T22:29:54.354Z,103386.13
2023-02-13T22:32:24.597Z,103386.94
2023-02-13T22:34:59.434Z,103387.81
2023-02-13T22:37:31.411Z,103163.19
2023-02-13T22:40:02.847Z,103385.59
2023-02-13T22:42:33.819Z,103382.28
2023-02-13T22:45:05.569Z,103338.97
2023-02-13T22:47:38.368Z,103348.03
2023-02-13T22:50:11.701Z,103393.94
2023-02-13T22:52:41.968Z,103166.34
2023-02-13T22:55:13.577Z,103364.09
2023-02-13T22:57:44.162Z,103390.06
2023-02-13T23:00:19.914Z,103390.84
2023-02-13T23:02:52.012Z,103417.47
2023-02-13T23:05:24.705Z,103390.97
2023-02-13T23:07:56.984Z,103201.63
2023-02-13T23:10:27.487Z,103384.84
2023-02-13T23:12:57.337Z,103384.09
2023-02-13T23:15:30.495Z,103366.03
2023-02-13T23:18:18.264Z,103372.09
2023-02-13T23:20:50.560Z,103369.47
2023-02-13T23:23:21.654Z,103369.25
2023-02-13T23:25:52.907Z,103382.13
2023-02-13T23:28:23.540Z,103345.06
2023-02-13T23:30:54.158Z,103362.19
2023-02-13T23:33:25.068Z,103364.84
2023-02-13T23:35:58.023Z,103365.78
2023-02-13T23:38:28.607Z,103355.47
2023-02-13T23:41:09.606Z,103333.59
2023-02-13T23:43:39.916Z,103371.34
2023-02-13T23:46:10.543Z,103372.94
2023-02-13T23:48:42.879Z,103377.13
2023-02-13T23:51:15.356Z,103375.28
2023-02-13T23:53:46.023Z,103326.63
2023-02-13T23:56:16.702Z,103372.72
2023-02-13T23:58:47.983Z,103374.31
